Tiempo atmosférico en la estación meteorológica de Cabrales, Asturias (458 m.)



Fecha
DESCASC
Temp. máxima en grados centígrados (hora)
DESCASC
Temp. mínima en grados centígrados (hora)
DESCASC
Temp. media en grados centígrados
DESCASC
Racha de viento máxima en m/sg (hora)
DESCASC
Velocidad máxima media en intervalos de 10 minutos(hora)
DESCASC
Precipitaciones diarias en mm
DESCASC
Precipitaciones de 00:00 a 06:00 en mm
DESCASC
Precipitaciones de 06:00 a 12:00 en mm
DESCASC
Precipitaciones de 12:00 a 18:00 en mm
DESCASC
Precipitaciones de 18:00 a 24:00 en mm
DESCASC
23-06-2019 24.1 (12:40) 15.2 (23:30) 19.7 10.83 (09:40) 6.67 (19:10) 0 0 0 0 0
22-06-2019 28.1 (17:10) 10.5 (06:40) 19.3 10 (20:00) 6.11 (21:50) 0 0 0 0 0
21-06-2019 19.8 (13:50) 12 (07:20) 15.9 8.61 (17:40) 5 (17:40) 3.6 2 1.6 0 0
20-06-2019 15.2 (16:50) 12.7 (00:00) 13.9 4.72 (17:00) 2.78 (04:00) 5.8 0.2 0.8 1.2 3.6
19-06-2019 21.3 (13:40) 13.2 (00:00) 17.2 5.83 (21:30) 4.72 (21:30) 8.4 0 0 0 8.4
18-06-2019 28.2 (13:10) 12.4 (00:00) 20.3 16.67 (13:50) 8.89 (15:30) 0 0 0 0 0
17-06-2019 23 (14:30) 12.4 (00:00) 17.7 7.22 (19:00) 5 (14:50) 0 0 0 0 0
16-06-2019 21.8 (15:40) 8.4 (00:00) 15.1 6.67 (16:10) 4.72 (16:50) 0 0 0 0 0
15-06-2019 18.6 (12:20) 9.8 (00:00) 14.2 5 (14:10) 3.89 (16:20) 0.2 0.2 0 0 0
14-06-2019 15.1 (18:10) 6.7 (00:00) 10.9 5 (22:20) 2.78 (17:00) 0.4 0.2 0 0 0.2
13-06-2019 16.3 (14:00) 8.1 (00:00) 12.2 5.28 (12:30) 3.06 (14:30) 0.8 0 0 0 0.8
12-06-2019 16.8 (17:00) 8.3 (00:00) 12.5 10.28 (10:30) 6.67 (12:10) 0 0 0 0 0
11-06-2019 14 (16:00) 6.9 (00:00) 10.5 13.33 (16:20) 8.61 (12:10) 11.2 3.2 6.6 0.4 1
10-06-2019 16.2 (13:50) 7.3 (00:00) 11.8 9.17 (15:10) 6.11 (15:10) 1 0 0 0 1
09-06-2019 14.1 (13:50) 8.8 (00:00) 11.5 7.22 (20:50) 5.56 (21:00) 1.4 0 0 1 0.4
08-06-2019 18.3 (13:10) 8.8 (00:00) 13.5 9.72 (14:50) 5.83 (14:50) 0 0 0 0 0
07-06-2019 -- (--) -- (--) -- -- (--) -- (--) -- -- -- 0 0.6
06-06-2019 -- (--) -- (--) -- -- (--) -- (--) -- 0 0 0 --
05-06-2019 13.9 (19:10) 8.7 (00:00) 11.3 14.72 (12:30) 9.72 (12:30) 1.4 0.2 0.2 1 0
04-06-2019 20.4 (11:50) 9.7 (00:00) 15 13.89 (13:30) 6.94 (16:50) 5.8 0 0 1.6 4.2
03-06-2019 25 (13:40) 12.9 (00:00) 18.9 7.5 (04:30) 5.28 (17:20) 0.4 0 0.4 0 0
02-06-2019 28.6 (14:10) 14.9 (00:00) 21.8 6.39 (19:20) 5 (19:20) 0 0 0 0 0
01-06-2019 31.9 (13:50) 17.5 (00:00) 24.7 6.11 (19:20) 4.44 (19:20) 0 0 0 0 0
31-05-2019 31.2 (16:00) 13.7 (00:00) 22.5 7.78 (18:20) 4.72 (17:40) 0 0 0 0 0
30-05-2019 28.3 (15:50) 10.6 (00:00) 19.4 9.72 (20:00) 5 (20:20) 0 0 0 0 0
29-05-2019 22.9 (17:30) 8.5 (00:00) 15.7 5.83 (17:50) 4.17 (20:50) 0 0 0 0 0
28-05-2019 15.6 (13:40) 8.4 (00:00) 12 11.67 (15:10) 6.94 (14:50) 0 0 0 0 0
27-05-2019 14.2 (12:00) 10.5 (00:00) 12.3 9.72 (15:20) 6.67 (15:00) 6.2 0 2.6 2.6 1
26-05-2019 18.1 (14:10) 8.6 (00:00) 13.4 7.78 (18:50) 6.11 (18:50) 0 0 0 0 0

Gráficas

Temp. máximas Temp. mínimas Temp. medias Precipitaciones Rachas de viento máximas Velocidades máximas media en intervalos de 10 minutos

Datos horarios

Fecha y hora oficial Temperatura (ºC) Velocidad del viento (km/h) Dirección del viento Racha (km/h) Dirección de racha Precipitación (mm) Presión (hPa) Tendencia (hPa) Humedad (%)
2019-06-24 23:00:00 15 5 Sur 12 Sudeste 1.4 -- -- 100
2019-06-24 22:00:00 15 9 Este 19 Sudeste 0.6 -- -- 100
2019-06-24 21:00:00 15.1 5 Nordeste 23 Sudeste 0.6 -- -- 100
2019-06-24 20:00:00 15.4 17 Sudeste 23 Sudeste 0.8 -- -- 100
2019-06-24 19:00:00 16 7 Sudeste 18 Sudeste 0.2 -- -- 99
2019-06-24 18:00:00 16.1 9 Oeste 23 Oeste 0.8 -- -- 97
2019-06-24 17:00:00 16.8 10 Oeste 27 Noroeste 0 -- -- 93
2019-06-24 16:00:00 19 14 Norte 26 Noroeste 0 -- -- 87
2019-06-24 15:00:00 17.6 16 Noroeste 26 Norte 0 -- -- 91
2019-06-24 14:00:00 18.1 16 Noroeste 26 Norte 0 -- -- 89
2019-06-24 13:00:00 20 17 Noroeste 24 Noroeste 0 -- -- 81
2019-06-24 12:00:00 18.1 3 Noroeste 13 Este 0 -- -- 87
2019-06-24 11:00:00 16.4 7 Sudeste 13 Sudeste 0 -- -- 95
2019-06-24 10:00:00 15.7 5 Sudeste 9 Sudeste 0 -- -- 98
2019-06-24 09:00:00 14.7 2 Noroeste 6 Noroeste 0 -- -- 100
2019-06-24 08:00:00 13.8 4 Oeste 8 Noroeste 0 -- -- 100
2019-06-24 07:00:00 13.7 5 Sur 11 Este 0 -- -- 100
2019-06-24 06:00:00 13.8 7 Oeste 14 Noroeste 0 -- -- 99
2019-06-24 05:00:00 13.9 9 Sur 15 Sudeste 0 -- -- 99
2019-06-24 04:00:00 14.1 4 Sudeste 15 Este 0 -- -- 97
2019-06-24 03:00:00 14.2 9 Sudeste 26 Sudeste 0 -- -- 97
2019-06-24 02:00:00 14.3 15 Sudeste 18 Sudeste 0 -- -- 95
2019-06-24 01:00:00 14.9 9 Sudeste 17 Sudeste 0 -- -- 92
2019-06-24 00:00:00 15.2 5 Sudeste 12 Este 0 -- -- 90
2019-06-23 23:00:00 15.4 7 Sudeste 17 Este 0 -- -- 89
2019-06-23 22:00:00 15.8 10 Este 30 Este 0 -- -- 87
2019-06-23 21:00:00 17 10 Sudeste 33 Este 0 -- -- 82
2019-06-23 20:00:00 18.2 21 Este 32 Este 0 -- -- 80
2019-06-23 19:00:00 20.6 17 Sudeste 32 Sudeste 0 -- -- 77
2019-06-23 18:00:00 19.7 17 Sudeste 25 Sudeste 0 -- -- 81
2019-06-23 17:00:00 20.7 6 Sur 37 Este 0 -- -- 76
2019-06-23 16:00:00 21 17 Este 35 Sudeste 0 -- -- 70
2019-06-23 15:00:00 22.1 12 Este 24 Este 0 -- -- 73
2019-06-23 14:00:00 20.2 12 Sudoeste 23 Oeste 0 -- -- 76
2019-06-23 13:00:00 23.9 7 Oeste 16 Noroeste 0 -- -- 65
2019-06-23 12:00:00 23 9 Sudeste 19 Este 0 -- -- 64
2019-06-23 11:00:00 20.4 5 Sudeste 24 Nordeste 0 -- -- 78
2019-06-23 10:00:00 16.6 15 Sudeste 39 Este 0 -- -- 84
2019-06-23 09:00:00 16.9 5 Sudeste 18 Sudeste 0 -- -- 87
2019-06-23 08:00:00 16.7 6 Sur 18 Noroeste 0 -- -- 78
2019-06-23 07:00:00 16.3 11 Noroeste 27 Noroeste 0 -- -- 82
2019-06-23 06:00:00 16.4 17 Norte 30 Noroeste 0 -- -- 83
2019-06-23 05:00:00 16.6 10 Oeste 13 Oeste 0 -- -- 78
2019-06-23 04:00:00 17 4 Sudoeste 9 Sudoeste 0 -- -- 76
2019-06-23 03:00:00 16.7 3 Sudeste 9 Este 0 -- -- 77
2019-06-23 02:00:00 17.8 5 Este 13 Noroeste 0 -- -- 73
2019-06-23 01:00:00 18.2 7 Noroeste 17 Noroeste 0 -- -- 70
2019-06-23 00:00:00 19.2 13 Noroeste 19 Noroeste 0 -- -- 68
2019-06-22 23:00:00 20.7 4 Sur 28 Sudeste 0 -- -- 60
2019-06-22 22:00:00 21 22 Sudeste 33 Sudeste 0 -- -- 59
2019-06-22 21:00:00 21.4 18 Sudeste 32 Este 0 -- -- 54
2019-06-22 20:00:00 24.3 17 Sudeste 36 Este 0 -- -- 50
2019-06-22 19:00:00 25.1 9 Sudeste 29 Este 0 -- -- 56
2019-06-22 18:00:00 26.1 16 Este 26 Este 0 -- -- 55
2019-06-22 17:00:00 27.7 9 Sudeste 19 Este 0 -- -- 56
2019-06-22 16:00:00 25.7 8 Sur 17 Este 0 -- -- 57
2019-06-22 15:00:00 25.5 7 Este 14 Este 0 -- -- 60
2019-06-22 14:00:00 25.9 6 Sudeste 12 Sudeste 0 -- -- 56
2019-06-22 13:00:00 23.3 5 Sudeste 11 Este 0 -- -- 79
2019-06-22 12:00:00 21 4 Nordeste 9 Sudoeste 0 -- -- 75
2019-06-22 11:00:00 19.8 3 Sur 11 Sudeste 0 -- -- 83
2019-06-22 10:00:00 15.2 2 Sudoeste 12 Sudoeste 0 -- -- 100
2019-06-22 09:00:00 13.3 4 Sudeste 11 Sudeste 0 -- -- 100
2019-06-22 08:00:00 11.4 5 Sudeste 15 Este 0 -- -- 100
2019-06-22 07:00:00 10.5 2 Sudeste 7 Este 0 -- -- 100
2019-06-22 06:00:00 10.6 2 Sudoeste 7 Sudeste 0 -- -- 100
2019-06-22 05:00:00 10.7 6 Sudeste 12 Sudeste 0 -- -- 100
2019-06-22 04:00:00 11.1 6 Sudeste 11 Este 0 -- -- 100
2019-06-22 03:00:00 11.2 6 Sudeste 16 Sudeste 0 -- -- 100
2019-06-22 02:00:00 11.5 10 Sudeste 14 Este 0 -- -- 98
2019-06-22 01:00:00 12.3 6 Sudeste 16 Sudeste 0 -- -- 97
2019-06-22 00:00:00 12.4 8 Sudeste 23 Este 0 -- -- 97
2019-06-21 23:00:00 12.5 11 Este 22 Este 0 -- -- 95
2019-06-21 22:00:00 12.8 9 Este 23 Este 0 -- -- 94
2019-06-21 21:00:00 13.5 8 Este 22 Sudeste 0 -- -- 92
2019-06-21 20:00:00 13.9 7 Sudeste 22 Este 0 -- -- 90
2019-06-21 19:00:00 15.3 14 Este 30 Este 0 -- -- 86
2019-06-21 18:00:00 17.3 13 Este 31 Este 0 -- -- 85
2019-06-21 17:00:00 16.7 12 Este 23 Este 0 -- -- 83
2019-06-21 16:00:00 17.4 6 Oeste 13 Oeste 0 -- -- 82
2019-06-21 15:00:00 19.1 5 Sur 18 Este 0 -- -- 75
2019-06-21 14:00:00 19.1 8 Sur 17 Sudeste 0 -- -- 76
2019-06-21 13:00:00 18.3 10 Sudeste 19 Este 0 -- -- 86
2019-06-21 12:00:00 15.1 9 Sudeste 24 Este 0 -- -- 100
2019-06-21 11:00:00 13.5 8 Sudeste 17 Este 0 -- -- 100
2019-06-21 10:00:00 12.5 6 Sudeste 15 Sudeste 0.2 -- -- 100
2019-06-21 09:00:00 12 7 Sudeste 14 Sudeste 0.2 -- -- 100
2019-06-21 08:00:00 12.1 6 Sudeste 10 Sudeste 0.8 -- -- 100
2019-06-21 07:00:00 12.1 5 Sudeste 10 Sudeste 0.4 -- -- 100
2019-06-21 06:00:00 12.1 4 Sudeste 9 Sudeste 1.2 -- -- 100
2019-06-21 05:00:00 12.3 2 Sudeste 19 Sudeste 0.2 -- -- 100
2019-06-21 04:00:00 12.4 6 Sudeste 20 Este 0.4 -- -- 100
2019-06-21 03:00:00 12.5 4 Sudeste 9 Sudeste 0 -- -- 100
2019-06-21 02:00:00 12.6 0 Calma 6 Oeste 0.2 -- -- 100
2019-06-21 01:00:00 12.7 0 Calma 5 Este 0 -- -- 100
2019-06-21 00:00:00 12.8 4 Sudeste 7 Sudeste 0.6 -- -- 100
2019-06-20 23:00:00 12.9 6 Sudeste 9 Sudeste 0.8 -- -- 100
2019-06-20 22:00:00 13.1 0 Calma 9 Sudeste 1.2 -- -- 100
2019-06-20 21:00:00 13.2 6 Sudeste 9 Sudeste 0.6 -- -- 99
2019-06-20 20:00:00 13.7 5 Oeste 7 Sudoeste 0.4 -- -- 98
2019-06-20 19:00:00 14.3 2 Sur 10 Sudeste 0 -- -- 98
2019-06-20 18:00:00 14.4 8 Sudeste 14 Sudeste 0 -- -- 98
2019-06-20 17:00:00 15.2 7 Sudeste 17 Sudeste 0 -- -- 98
2019-06-20 16:00:00 14.9 6 Sudeste 12 Sudeste 0 -- -- 100
2019-06-20 15:00:00 14.3 2 Sudoeste 8 Oeste 0 -- -- 100
2019-06-20 14:00:00 14.7 3 Sudoeste 6 Oeste 0.2 -- -- 100
2019-06-20 13:00:00 14 5 Sudoeste 10 Oeste 1 -- -- 100
2019-06-20 12:00:00 14.2 5 Oeste 9 Oeste 0 -- -- 100
2019-06-20 11:00:00 14.5 0 Calma 4 Sudoeste 0.6 -- -- 100
2019-06-20 10:00:00 13.5 3 Oeste 7 Oeste 0 -- -- 100
2019-06-20 09:00:00 13 5 Oeste 10 Oeste 0.2 -- -- 100
2019-06-20 08:00:00 12.8 7 Oeste 10 Oeste 0 -- -- 100
2019-06-20 07:00:00 12.7 8 Sudoeste 11 Oeste 0 -- -- 100
2019-06-20 06:00:00 12.7 6 Oeste 8 Noroeste 0 -- -- 100
2019-06-20 05:00:00 12.7 5 Oeste 13 Oeste 0.2 -- -- 100
2019-06-20 04:00:00 12.8 10 Oeste 14 Oeste 0 -- -- 100
2019-06-20 03:00:00 12.9 4 Oeste 10 Oeste 0 -- -- 100
2019-06-20 02:00:00 13 8 Oeste 10 Oeste 0 -- -- 100
2019-06-20 01:00:00 13.1 8 Sudoeste 13 Sudoeste 0 -- -- 100
2019-06-20 00:00:00 13.2 8 Sudoeste 12 Sudoeste 0.4 -- -- 100
2019-06-19 23:00:00 13.3 7 Oeste 16 Oeste 0.4 -- -- 100
2019-06-19 22:00:00 13.3 13 Oeste 21 Oeste 1.6 -- -- 100
2019-06-19 21:00:00 13.6 14 Oeste 20 Oeste 1.2 -- -- 99
2019-06-19 20:00:00 14.2 9 Sudoeste 12 Sudoeste 4.2 -- -- 98
2019-06-19 19:00:00 15 9 Sudoeste 17 Oeste 0.6 -- -- 95
2019-06-19 18:00:00 15.8 11 Sudoeste 17 Sudoeste 0 -- -- 87
2019-06-19 17:00:00 17.1 8 Oeste 14 Oeste 0 -- -- 82
2019-06-19 16:00:00 17.9 9 Oeste 16 Sudoeste 0 -- -- 79
2019-06-19 15:00:00 18.9 10 Sudoeste 19 Oeste 0 -- -- 74
2019-06-19 14:00:00 21.1 8 Sudeste 18 Este 0 -- -- 69
2019-06-19 13:00:00 20.1 4 Oeste 10 Sudoeste 0 -- -- 69
2019-06-19 12:00:00 18.2 6 Oeste 11 Sudoeste 0 -- -- 75
2019-06-19 11:00:00 17.1 9 Oeste 16 Noroeste 0 -- -- 77
2019-06-19 10:00:00 16.1 12 Oeste 19 Oeste 0 -- -- 79
2019-06-19 09:00:00 15.1 7 Oeste 11 Oeste 0 -- -- 82
2019-06-19 08:00:00 13.8 3 Oeste 6 Sudoeste 0 -- -- 85
2019-06-19 07:00:00 13.5 5 Sudeste 8 Sudeste 0 -- -- 84
2019-06-19 06:00:00 13.6 2 Noroeste 14 Oeste 0 -- -- 84
2019-06-19 05:00:00 13.6 10 Oeste 13 Oeste 0 -- -- 82
2019-06-19 04:00:00 14 8 Oeste 15 Noroeste 0 -- -- 79
2019-06-19 03:00:00 15.1 5 Oeste 10 Oeste 0 -- -- 73
2019-06-19 02:00:00 15.5 8 Oeste 10 Oeste 0 -- -- 70
2019-06-19 01:00:00 15.1 7 Sudoeste 13 Oeste 0 -- -- 72
2019-06-19 00:00:00 15.1 3 Este 20 Este 0 -- -- 69
2019-06-18 23:00:00 15.3 10 Este 22 Este 0 -- -- 75
2019-06-18 22:00:00 16.7 0 Calma 21 Oeste 0 -- -- 65
2019-06-18 21:00:00 17.5 16 Oeste 26 Sudoeste 0 -- -- 61
2019-06-18 20:00:00 21.5 6 Sur 15 Oeste 0 -- -- 63
2019-06-18 19:00:00 22.7 7 Nordeste 22 Sudoeste 0 -- -- 67
2019-06-18 18:00:00 19.7 13 Oeste 27 Noroeste 0 -- -- 62
2019-06-18 17:00:00 19.6 17 Noroeste 31 Noroeste 0 -- -- 62
2019-06-18 16:00:00 20.4 21 Oeste 48 Oeste 0 -- -- 67
2019-06-18 15:00:00 22.5 30 Noroeste 47 Sudoeste 0 -- -- 65
2019-06-18 14:00:00 27.2 21 Oeste 60 Sudoeste 0 -- -- 31
2019-06-18 13:00:00 27.7 8 Este 28 Sudoeste 0 -- -- 30
2019-06-18 12:00:00 24.4 6 Sur 19 Sudoeste 0 -- -- 62
2019-06-18 11:00:00 21.1 5 Noroeste 19 Este 0 -- -- 73
2019-06-18 10:00:00 17.3 9 Sudeste 16 Sudeste 0 -- -- 89
2019-06-18 09:00:00 14.1 3 Sudeste 15 Sudoeste 0 -- -- 98
2019-06-18 08:00:00 12.6 5 Sur 11 Sudoeste 0 -- -- 97
2019-06-18 07:00:00 13 4 Sudeste 12 Sudoeste 0 -- -- 95
2019-06-18 06:00:00 13.1 3 Sur 11 Sudoeste 0 -- -- 98
2019-06-18 05:00:00 13.4 2 Sur 14 Sudoeste 0 -- -- 100
2019-06-18 04:00:00 13.2 4 Este 15 Sudeste 0 -- -- 99
2019-06-18 03:00:00 13.7 12 Sudeste 15 Sur 0 -- -- 98
2019-06-18 02:00:00 14.3 3 Nordeste 13 Sudeste 0 -- -- 97
2019-06-18 01:00:00 15.1 3 Norte 6 Este 0 -- -- 95
2019-06-18 00:00:00 15.3 0 Calma 6 Sudoeste 0 -- -- 96
2019-06-17 23:00:00 15.3 3 Noroeste 6 Oeste 0 -- -- 96
2019-06-17 22:00:00 15.5 4 Norte 9 Sudoeste 0 -- -- 94
2019-06-17 21:00:00 15.6 4 Sudeste 10 Sur 0 -- -- 95
2019-06-17 20:00:00 15.2 8 Oeste 22 Noroeste 0 -- -- 95
2019-06-17 19:00:00 16.3 18 Noroeste 26 Noroeste 0 -- -- 90
2019-06-17 18:00:00 18.6 12 Oeste 19 Noroeste 0 -- -- 84
2019-06-17 17:00:00 20 16 Noroeste 23 Noroeste 0 -- -- 81
2019-06-17 16:00:00 22 15 Noroeste 23 Oeste 0 -- -- 77
2019-06-17 15:00:00 22.7 15 Noroeste 25 Noroeste 0 -- -- 76
2019-06-17 14:00:00 22.9 12 Noroeste 17 Oeste 0 -- -- 73
2019-06-17 13:00:00 21.4 7 Noroeste 14 Noroeste 0 -- -- 78
2019-06-17 12:00:00 19.8 4 Noroeste 10 Oeste 0 -- -- 78
2019-06-17 11:00:00 17.1 6 Noroeste 13 Norte 0 -- -- 87
2019-06-17 10:00:00 15.3 5 Noroeste 13 Noroeste 0 -- -- 96
2019-06-17 09:00:00 13.8 2 Este 8 Este 0 -- -- 100
2019-06-17 08:00:00 12.9 3 Sudeste 7 Sudeste 0 -- -- 100
2019-06-17 07:00:00 12.4 4 Sudeste 6 Sudeste 0 -- -- 100
2019-06-17 06:00:00 12.5 3 Sudeste 7 Sudeste 0 -- -- 100
2019-06-17 05:00:00 12.8 2 Sudeste 7 Sur 0 -- -- 100
2019-06-17 04:00:00 12.9 0 Calma 12 Sudeste 0 -- -- 100
2019-06-17 03:00:00 13.1 7 Sudeste 10 Sudeste 0 -- -- 100
2019-06-17 02:00:00 13.2 2 Sur 9 Sudeste 0 -- -- 100
2019-06-17 01:00:00 13.2 7 Sur 12 Sudeste 0 -- -- 100
2019-06-17 00:00:00 13.5 4 Sur 9 Oeste 0 -- -- 99
2019-06-16 23:00:00 13.6 7 Oeste 12 Oeste 0 -- -- 97
2019-06-16 22:00:00 15.6 3 Sur 10 Sudeste 0 -- -- 88
2019-06-16 21:00:00 18 2 Sur 13 Oeste 0 -- -- 83
2019-06-16 20:00:00 18.9 9 Oeste 16 Oeste 0 -- -- 80
2019-06-16 19:00:00 19.3 13 Oeste 21 Oeste 0 -- -- 78
2019-06-16 18:00:00 21 13 Oeste 22 Oeste 0 -- -- 74
2019-06-16 17:00:00 20.9 16 Oeste 24 Oeste 0 -- -- 73
2019-06-16 16:00:00 21.4 16 Oeste 24 Oeste 0 -- -- 68
2019-06-16 15:00:00 21.1 15 Noroeste 21 Noroeste 0 -- -- 70
2019-06-16 14:00:00 21.1 10 Noroeste 18 Noroeste 0 -- -- 68
2019-06-16 13:00:00 20 8 Noroeste 16 Noroeste 0 -- -- 67
2019-06-16 12:00:00 19.6 3 Norte 13 Nordeste 0 -- -- 68
2019-06-16 11:00:00 17 4 Este 10 Este 0 -- -- 73
2019-06-16 10:00:00 13.4 0 Calma 6 Nordeste 0 -- -- 94
2019-06-16 09:00:00 10 3 Sur 4 Sudoeste 0 -- -- 100
2019-06-16 08:00:00 9.1 0 Calma 4 Este 0 -- -- 100
2019-06-16 07:00:00 8.5 3 Este 4 Este 0 -- -- 98
2019-06-16 06:00:00 8.9 4 Este 4 Este 0 -- -- 96
2019-06-16 05:00:00 9.7 0 Calma 5 Noroeste 0 -- -- 94
2019-06-16 04:00:00 10.3 5 Oeste 9 Oeste 0 -- -- 92
2019-06-16 03:00:00 10.3 2 Oeste 9 Sudeste 0 -- -- 92
2019-06-16 02:00:00 11.2 4 Sudeste 8 Sur 0 -- -- 89
2019-06-16 01:00:00 11.5 3 Sur 8 Sudeste 0 -- -- 89
2019-06-16 00:00:00 11.5 4 Sudeste 13 Este 0 -- -- 87
2019-06-15 23:00:00 11.9 4 Sudeste 8 Este 0 -- -- 89
2019-06-15 22:00:00 12.2 4 Sudeste 10 Este 0 -- -- 88
2019-06-15 21:00:00 12.4 5 Este 9 Este 0 -- -- 87
2019-06-15 20:00:00 12.5 4 Oeste 10 Sudoeste 0 -- -- 80
2019-06-15 19:00:00 12.9 8 Oeste 14 Oeste 0 -- -- 85
2019-06-15 18:00:00 13.3 13 Sudoeste 17 Sudoeste 0 -- -- 86
2019-06-15 17:00:00 13.6 12 Oeste 17 Oeste 0 -- -- 83
2019-06-15 16:00:00 13.8 11 Oeste 15 Oeste 0 -- -- 82
2019-06-15 15:00:00 14.5 8 Oeste 18 Nordeste 0 -- -- 80
2019-06-15 14:00:00 16.5 7 Nordeste 17 Norte 0 -- -- 75
2019-06-15 13:00:00 18.6 10 Noroeste 17 Noroeste 0 -- -- 63
2019-06-15 12:00:00 17.3 5 Oeste 9 Oeste 0 -- -- 66
2019-06-15 11:00:00 14.3 3 Sudoeste 8 Sudoeste 0 -- -- 83
2019-06-15 10:00:00 12.5 5 Sudoeste 7 Sudoeste 0 -- -- 96
2019-06-15 09:00:00 10.7 2 Sudoeste 5 Sudeste 0 -- -- 100
2019-06-15 08:00:00 10.5 5 Sudeste 6 Sudeste 0 -- -- 100
2019-06-15 07:00:00 9.8 2 Sudeste 4 Oeste 0 -- -- 100
2019-06-15 06:00:00 10.1 3 Sudoeste 4 Oeste 0.2 -- -- 98
2019-06-15 05:00:00 10.4 3 Sudeste 5 Este 0 -- -- 97
2019-06-15 04:00:00 10.9 3 Sudoeste 6 Norte 0 -- -- 96
2019-06-15 03:00:00 11 4 Noroeste 9 Noroeste 0 -- -- 95
2019-06-15 02:00:00 11.3 5 Oeste 7 Noroeste 0 -- -- 96
2019-06-15 01:00:00 11.2 2 Oeste 13 Noroeste 0 -- -- 97
2019-06-15 00:00:00 11.5 10 Noroeste 14 Oeste 0.2 -- -- 97
2019-06-14 23:00:00 11.8 7 Norte 18 Noroeste 0 -- -- 96
2019-06-14 22:00:00 12 5 Oeste 13 Noroeste 0 -- -- 95
2019-06-14 21:00:00 12.5 5 Noroeste 12 Noroeste 0 -- -- 93
2019-06-14 20:00:00 13 4 Oeste 6 Oeste 0 -- -- 91
2019-06-14 19:00:00 13.7 4 Sur 11 Sudeste 0 -- -- 87
2019-06-14 18:00:00 14.8 4 Sur 11 Sudeste 0 -- -- 85
2019-06-14 17:00:00 13.3 10 Oeste 15 Oeste 0 -- -- 88
2019-06-14 16:00:00 13.1 8 Oeste 14 Oeste 0 -- -- 89
2019-06-14 15:00:00 13.3 8 Oeste 14 Noroeste 0 -- -- 86
2019-06-14 14:00:00 13.8 5 Oeste 12 Oeste 0 -- -- 86
2019-06-14 13:00:00 13.2 8 Noroeste 12 Oeste 0 -- -- 90
2019-06-14 12:00:00 13.2 8 Noroeste 12 Este 0 -- -- 91
2019-06-14 11:00:00 13.1 8 Sudeste 13 Sudeste 0 -- -- 100
2019-06-14 10:00:00 11 0 Calma 5 Este 0 -- -- 100
2019-06-14 09:00:00 8.6 0 Calma 4 Este 0 -- -- 100
2019-06-14 08:00:00 7.1 0 Calma 5 Sudeste 0 -- -- 100
2019-06-14 07:00:00 7.1 2 Oeste 4 Oeste 0 -- -- 100
2019-06-14 06:00:00 7.4 2 Nordeste 4 Oeste 0 -- -- 100
2019-06-14 05:00:00 7.9 4 Oeste 6 Sudoeste 0 -- -- 100
2019-06-14 04:00:00 8.5 4 Sudoeste 5 Sudoeste 0 -- -- 100
2019-06-14 03:00:00 8.4 2 Sur 9 Sudeste 0.2 -- -- 100
2019-06-14 02:00:00 8.7 10 Sudeste 13 Sudeste 0 -- -- 100
2019-06-14 01:00:00 9.5 6 Sudeste 17 Sudeste 0 -- -- 100
2019-06-14 00:00:00 10 10 Sudeste 14 Sudeste 0 -- -- 100
2019-06-13 23:00:00 10.1 0 Calma 5 Sudoeste 0 -- -- 100
2019-06-13 22:00:00 10.4 2 Sudoeste 4 Oeste 0 -- -- 100
2019-06-13 21:00:00 10.6 3 Sudoeste 8 Sudoeste 0.2 -- -- 100
2019-06-13 20:00:00 10.7 6 Oeste 9 Oeste 0.6 -- -- 99
2019-06-13 19:00:00 11 4 Oeste 14 Oeste 0 -- -- 97
2019-06-13 18:00:00 11 8 Oeste 14 Oeste 0 -- -- 95
2019-06-13 17:00:00 11.8 9 Oeste 13 Sudoeste 0 -- -- 90
2019-06-13 16:00:00 11.6 10 Sudoeste 15 Sudoeste 0 -- -- 90
2019-06-13 15:00:00 14.2 4 Nordeste 18 Este 0 -- -- 80
2019-06-13 14:00:00 16.3 6 Sudeste 15 Sudeste 0 -- -- 74
2019-06-13 13:00:00 15.3 5 Sudeste 19 Sudeste 0 -- -- 75
2019-06-13 12:00:00 14.1 6 Sudeste 18 Sudeste 0 -- -- 81
2019-06-13 11:00:00 12.7 9 Sudeste 15 Sudeste 0 -- -- 87
2019-06-13 10:00:00 11.5 2 Este 6 Este 0 -- -- 96
2019-06-13 09:00:00 10 0 Calma 5 Sudeste 0 -- -- 100
2019-06-13 08:00:00 8.9 2 Este 6 Sudeste 0 -- -- 100
2019-06-13 07:00:00 8.4 3 Sudeste 5 Sudeste 0 -- -- 99
2019-06-13 06:00:00 8.2 3 Sudoeste 5 Sudoeste 0 -- -- 99
2019-06-13 05:00:00 8.3 0 Calma 8 Oeste 0 -- -- 99
2019-06-13 04:00:00 8.7 0 Calma 5 Sudeste 0 -- -- 97
2019-06-13 03:00:00 9.3 4 Sudeste 6 Sudeste 0 -- -- 95
2019-06-13 02:00:00 9.6 7 Este 12 Este 0 -- -- 94
2019-06-13 01:00:00 9.8 6 Sudeste 9 Sudeste 0 -- -- 92
2019-06-13 00:00:00 10 2 Sudoeste 3 Oeste 0 -- -- 92
2019-06-12 23:00:00 10.2 2 Oeste 6 Sudoeste 0 -- -- 89
2019-06-12 22:00:00 10.3 5 Sudoeste 9 Sudoeste 0 -- -- 87
2019-06-12 21:00:00 10.5 7 Sudoeste 15 Oeste 0 -- -- 85
2019-06-12 20:00:00 11 9 Oeste 18 Oeste 0 -- -- 81
2019-06-12 19:00:00 11.6 14 Oeste 27 Oeste 0 -- -- 77
2019-06-12 18:00:00 13.7 15 Noroeste 27 Noroeste 0 -- -- 75
2019-06-12 17:00:00 16.8 13 Noroeste 27 Norte 0 -- -- 68
2019-06-12 16:00:00 15.3 10 Norte 32 Noroeste 0 -- -- 69
2019-06-12 15:00:00 14.8 20 Noroeste 34 Norte 0 -- -- 61
2019-06-12 14:00:00 15.4 15 Noroeste 31 Noroeste 0 -- -- 67
2019-06-12 13:00:00 14.8 19 Norte 33 Noroeste 0 -- -- 64
2019-06-12 12:00:00 12.4 18 Noroeste 34 Noroeste 0 -- -- 71
2019-06-12 11:00:00 11.8 22 Norte 37 Norte 0 -- -- 72
2019-06-12 10:00:00 10.8 22 Noroeste 31 Norte 0 -- -- 72
2019-06-12 09:00:00 11.4 17 Noroeste 30 Noroeste 0 -- -- 70
2019-06-12 08:00:00 9.4 13 Noroeste 26 Norte 0 -- -- 74
2019-06-12 07:00:00 8.9 12 Norte 24 Noroeste 0 -- -- 77
2019-06-12 06:00:00 9.1 14 Noroeste 32 Oeste 0 -- -- 74
2019-06-12 05:00:00 8.7 12 Noroeste 28 Noroeste 0 -- -- 77
2019-06-12 04:00:00 8.4 14 Noroeste 31 Noroeste 0 -- -- 82
2019-06-12 03:00:00 8.9 20 Noroeste 31 Noroeste 0 -- -- 81
2019-06-12 02:00:00 8.9 17 Noroeste 35 Noroeste 0 -- -- 83
2019-06-12 01:00:00 8.8 21 Noroeste 30 Noroeste 0 -- -- 88
2019-06-12 00:00:00 8.8 14 Noroeste 36 Noroeste 0 -- -- 94
2019-06-11 23:00:00 9.2 21 Noroeste 37 Oeste 0 -- -- 87
2019-06-11 22:00:00 9.3 17 Noroeste 35 Oeste 0.2 -- -- 95
2019-06-11 21:00:00 9.6 20 Noroeste 44 Oeste 0.6 -- -- 94
2019-06-11 20:00:00 10.7 27 Noroeste 45 Noroeste 0.2 -- -- 88
2019-06-11 19:00:00 13 28 Oeste 38 Oeste 0 -- -- 74
2019-06-11 18:00:00 12.2 22 Oeste 41 Oeste 0 -- -- 76
2019-06-11 17:00:00 12 24 Oeste 48 Norte 0 -- -- 81
2019-06-11 16:00:00 14 17 Noroeste 42 Oeste 0 -- -- 75
2019-06-11 15:00:00 12.2 13 Noroeste 32 Oeste 0 -- -- 93
2019-06-11 14:00:00 10.7 26 Oeste 43 Oeste 0 -- -- 79
2019-06-11 13:00:00 10 26 Noroeste 46 Oeste 0.4 -- -- 88
2019-06-11 12:00:00 9.6 22 Oeste 45 Oeste 0.4 -- -- 91
2019-06-11 11:00:00 8.7 6 Noroeste 21 Sudoeste 2.2 -- -- 98
2019-06-11 10:00:00 8.4 13 Oeste 21 Oeste 0.6 -- -- 97
2019-06-11 09:00:00 7.4 4 Noroeste 18 Oeste 0.4 -- -- 98
2019-06-11 08:00:00 6.9 21 Oeste 33 Oeste 3 -- -- 98
2019-06-11 07:00:00 7.8 17 Noroeste 29 Oeste 0 -- -- 96
2019-06-11 06:00:00 8 21 Oeste 40 Oeste 0 -- -- 98
2019-06-11 05:00:00 8 19 Oeste 28 Oeste 1.8 -- -- 100
2019-06-11 04:00:00 8.2 13 Noroeste 24 Noroeste 0.4 -- -- 100
2019-06-11 03:00:00 8.3 12 Noroeste 27 Norte 0.8 -- -- 100
2019-06-11 02:00:00 8.4 8 Noroeste 19 Oeste 0 -- -- 98
2019-06-11 01:00:00 8.4 3 Este 13 Noroeste 0.2 -- -- 99
2019-06-11 00:00:00 8.7 7 Norte 20 Noroeste 0.4 -- -- 99
2019-06-10 23:00:00 8.9 12 Noroeste 23 Oeste 0.4 -- -- 97
2019-06-10 22:00:00 9.6 12 Noroeste 18 Noroeste 0.2 -- -- 94
2019-06-10 21:00:00 10.2 6 Noroeste 11 Noroeste 0 -- -- 88
2019-06-10 20:00:00 10.7 9 Noroeste 17 Noroeste 0 -- -- 80
2019-06-10 19:00:00 11.1 9 Noroeste 24 Noroeste 0 -- -- 79
2019-06-10 18:00:00 11.4 11 Noroeste 26 Noroeste 0 -- -- 82
2019-06-10 17:00:00 12.4 12 Noroeste 26 Oeste 0 -- -- 81
2019-06-10 16:00:00 14.3 15 Oeste 33 Norte 0 -- -- 78
2019-06-10 15:00:00 15.9 13 Noroeste 29 Noroeste 0 -- -- 69
2019-06-10 14:00:00 15.9 13 Noroeste 27 Oeste 0 -- -- 71
2019-06-10 13:00:00 14.6 14 Noroeste 25 Noroeste 0 -- -- 69
2019-06-10 12:00:00 13.9 13 Norte 21 Noroeste 0 -- -- 84
2019-06-10 11:00:00 12.2 8 Oeste 12 Oeste 0 -- -- 96
2019-06-10 10:00:00 10.6 2 Oeste 4 Oeste 0 -- -- 100
2019-06-10 09:00:00 9 2 Oeste 6 Oeste 0 -- -- 100
2019-06-10 08:00:00 8.1 4 Oeste 7 Noroeste 0 -- -- 100
2019-06-10 07:00:00 7.7 3 Sudoeste 4 Sudoeste 0 -- -- 100
2019-06-10 06:00:00 7.6 3 Oeste 5 Oeste 0 -- -- 100
2019-06-10 05:00:00 7.3 3 Sudoeste 6 Sudeste 0 -- -- 100
2019-06-10 04:00:00 7.4 3 Sudeste 5 Sudeste 0 -- -- 100
2019-06-10 03:00:00 8 3 Sudoeste 6 Nordeste 0 -- -- 100
2019-06-10 02:00:00 8.4 0 Calma 4 Sudoeste 0 -- -- 100
2019-06-10 01:00:00 8.8 2 Sur 4 Sudoeste 0 -- -- 100
2019-06-10 00:00:00 8.9 5 Sudoeste 6 Sudoeste 0.2 -- -- 100
2019-06-09 23:00:00 9 3 Este 10 Oeste 0 -- -- 100
2019-06-09 22:00:00 8.8 10 Oeste 25 Oeste 0 -- -- 100
2019-06-09 21:00:00 9.1 20 Oeste 26 Oeste 0 -- -- 100
2019-06-09 20:00:00 9.9 13 Oeste 24 Oeste 0.2 -- -- 100
2019-06-09 19:00:00 10.2 13 Oeste 19 Oeste 0 -- -- 100
2019-06-09 18:00:00 10.2 11 Oeste 23 Oeste 0 -- -- 100
2019-06-09 17:00:00 10.8 16 Oeste 21 Oeste 0.4 -- -- 99
2019-06-09 16:00:00 10.7 14 Oeste 20 Oeste 0.6 -- -- 98
2019-06-09 15:00:00 11.8 11 Oeste 18 Oeste 0 -- -- 92
2019-06-09 14:00:00 13.8 6 Noroeste 11 Noroeste 0 -- -- 83
2019-06-09 13:00:00 13.9 2 Noroeste 7 Noroeste 0 -- -- 85
2019-06-09 12:00:00 13 0 Calma 10 Este 0 -- -- 89
2019-06-09 11:00:00 13.2 7 Sudeste 13 Este 0 -- -- 87
2019-06-09 10:00:00 12.3 3 Oeste 7 Oeste 0 -- -- 92
2019-06-09 09:00:00 11.4 3 Sudeste 8 Sudeste 0 -- -- 99
2019-06-09 08:00:00 10.5 2 Este 7 Este 0 -- -- 99
2019-06-09 07:00:00 10.1 2 Nordeste 19 Este 0 -- -- 99
2019-06-09 06:00:00 10.2 3 Este 10 Este 0 -- -- 100
2019-06-09 05:00:00 10.3 4 Sudeste 6 Sudeste 0 -- -- 100
2019-06-09 04:00:00 10.3 2 Sudeste 6 Este 0 -- -- 100
2019-06-09 03:00:00 10.2 3 Norte 17 Sudeste 0 -- -- 100
2019-06-09 02:00:00 10.1 7 Este 23 Este 0 -- -- 100
2019-06-09 01:00:00 10 13 Sudeste 24 Este 0 -- -- 100
2019-06-09 00:00:00 10.1 8 Sudeste 23 Este 0 -- -- 100
2019-06-08 23:00:00 10.2 13 Sudeste 28 Sudeste 0 -- -- 100
2019-06-08 22:00:00 10.4 8 Sudeste 18 Sudeste 0 -- -- 99
2019-06-08 21:00:00 10.8 9 Sudeste 17 Este 0 -- -- 98
2019-06-08 20:00:00 11.5 5 Sudeste 10 Sudeste 0 -- -- 95
2019-06-08 19:00:00 11.4 6 Sudeste 15 Sudeste 0 -- -- 94
2019-06-08 18:00:00 11.6 10 Este 27 Este 0 -- -- 90
2019-06-08 17:00:00 12 14 Este 30 Este 0 -- -- 88
2019-06-08 16:00:00 12.7 17 Este 32 Sudeste 0 -- -- 85
2019-06-08 15:00:00 16.9 19 Este 35 Este 0 -- -- 71
2019-06-08 14:00:00 16.6 15 Este 30 Este 0 -- -- 71
2019-06-08 13:00:00 17.3 14 Este 28 Este 0 -- -- 70
2019-06-08 12:00:00 16.7 10 Sudeste 21 Este 0 -- -- 74
2019-06-08 11:00:00 14.8 6 Sudeste 17 Sudeste 0 -- -- 81
2019-06-08 10:00:00 11.7 11 Sudeste 19 Este 0 -- -- 89
2019-06-08 09:00:00 10.6 6 Este 16 Sudeste 0 -- -- 98
2019-06-08 08:00:00 9 0 Calma 3 Oeste 0 -- -- 96
2019-06-08 07:00:00 8.8 0 Calma 6 Oeste 0 -- -- 97
2019-06-08 06:00:00 9 4 Oeste 6 Oeste 0 -- -- 97
2019-06-08 05:00:00 9.2 4 Sudeste 8 Sudeste 0 -- -- 98
2019-06-08 04:00:00 9.3 0 Calma 5 Sudeste 0 -- -- 97
2019-06-08 03:00:00 9.5 5 Sudeste 6 Sudeste 0 -- -- 96
2019-06-08 02:00:00 9.7 3 Sudeste 9 Sudeste 0 -- -- 95
2019-06-08 01:00:00 9.9 2 Este 6 Sur 0 -- -- 93
2019-06-08 00:00:00 10 4 Sudeste 9 Sudeste 0 -- -- 94
2019-06-07 23:00:00 10.1 6 Este 13 Este 0 -- -- 94
2019-06-07 22:00:00 10.4 4 Sudeste 9 Sudoeste 0 -- -- 91
2019-06-07 21:00:00 10.9 6 Sudoeste 19 Noroeste 0.6 -- -- 89
2019-06-07 20:00:00 12.5 9 Noroeste 28 Norte 0 -- -- 72
2019-06-07 19:00:00 13.3 21 Noroeste 35 Oeste 0 -- -- 65
2019-06-07 18:00:00 14 26 Oeste 38 Oeste 0 -- -- 62
2019-06-07 17:00:00 14.8 21 Norte 40 Noroeste 0 -- -- 59
2019-06-07 16:00:00 18.3 20 Norte 53 Oeste 0 -- -- 56
2019-06-07 15:00:00 17 28 Noroeste 50 Oeste 0 -- -- 48
2019-06-07 14:00:00 16.8 28 Noroeste 54 Noroeste 0 -- -- 49
2019-06-07 13:00:00 15.9 37 Noroeste 72 Oeste 0 -- -- 46
2019-06-07 12:00:00 15.2 33 Noroeste -- -- -- -- -- 49
2019-06-07 11:00:00 -- -- -- -- -- -- -- -- --
2019-06-07 10:00:00 -- -- -- -- -- -- -- -- --
2019-06-07 09:00:00 -- -- -- -- -- -- -- -- --
2019-06-07 08:00:00 -- -- -- -- -- -- -- -- --
2019-06-07 07:00:00 -- -- -- -- -- -- -- -- --
2019-06-07 06:00:00 -- -- -- -- -- -- -- -- --
2019-06-07 05:00:00 -- -- -- -- -- -- -- -- --
2019-06-07 04:00:00 -- -- -- -- -- -- -- -- --
2019-06-07 03:00:00 -- -- -- -- -- -- -- -- --
2019-06-07 02:00:00 -- -- -- -- -- -- -- -- --
2019-06-07 01:00:00 -- -- -- -- -- -- -- -- --
2019-06-07 00:00:00 -- -- -- -- -- -- -- -- --
2019-06-06 23:00:00 -- -- -- -- -- -- -- -- --
2019-06-06 22:00:00 -- -- -- -- -- -- -- -- --
2019-06-06 21:00:00 16.5 32 Sudoeste 118 Sur 0 -- -- 58
2019-06-06 20:00:00 15.4 58 Sur 147 Sur 0 -- -- 64
2019-06-06 19:00:00 19.3 24 Sur 69 Sur 0 -- -- 41
2019-06-06 18:00:00 19.6 9 Norte 28 Noroeste 0 -- -- 49
2019-06-06 17:00:00 20.2 9 Este 43 Oeste 0 -- -- 51
2019-06-06 16:00:00 20.5 14 Oeste 73 Oeste 0 -- -- 44
2019-06-06 15:00:00 18.8 22 Oeste 53 Oeste 0 -- -- 50
2019-06-06 14:00:00 21.7 9 Este 24 Nordeste 0 -- -- 50
2019-06-06 13:00:00 19.5 10 Nordeste 23 Nordeste 0 -- -- 59
2019-06-06 12:00:00 17.8 10 Este 21 Este 0 -- -- 65
2019-06-06 11:00:00 15.1 6 Sudeste 12 Este 0 -- -- 72
2019-06-06 10:00:00 11.2 2 Noroeste 11 Oeste 0 -- -- 88
2019-06-06 09:00:00 8.7 11 Sudeste 18 Este 0 -- -- 99
2019-06-06 08:00:00 6.8 12 Sudeste 17 Sudeste 0 -- -- 100
2019-06-06 07:00:00 6 3 Este 8 Sudeste 0 -- -- 99
2019-06-06 06:00:00 6.4 6 Este 8 Este 0 -- -- 98
2019-06-06 05:00:00 6.9 4 Este 6 Este 0 -- -- 95
2019-06-06 04:00:00 7.5 2 Este 4 Noroeste 0 -- -- 93
2019-06-06 03:00:00 7.8 0 Calma 4 Noroeste 0 -- -- 94
2019-06-06 02:00:00 8.1 0 Calma 5 Este 0 -- -- 92
2019-06-06 01:00:00 8.4 2 Sudeste 8 Noroeste 0 -- -- 88
2019-06-06 00:00:00 8.7 5 Noroeste 22 Oeste 0 -- -- 90
2019-06-05 23:00:00 9.5 15 Noroeste 23 Noroeste 0 -- -- 88
2019-06-05 22:00:00 9.5 12 Noroeste 17 Noroeste 0 -- -- 87
2019-06-05 21:00:00 10.2 9 Noroeste 22 Oeste 0 -- -- 87
2019-06-05 20:00:00 10.5 21 Oeste 31 Noroeste 0 -- -- 86
2019-06-05 19:00:00 13.8 13 Noroeste 30 Norte 0 -- -- 74
2019-06-05 18:00:00 12.4 17 Noroeste 26 Noroeste 0 -- -- 73
2019-06-05 17:00:00 11.4 19 Noroeste 28 Oeste 0 -- -- 82
2019-06-05 16:00:00 9.9 18 Oeste 39 Noroeste 0.2 -- -- 91
2019-06-05 15:00:00 12.9 9 Nordeste 25 Oeste 0 -- -- 97
2019-06-05 14:00:00 9.3 18 Oeste 51 Oeste 0.4 -- -- 91
2019-06-05 13:00:00 12.2 18 Noroeste 53 Noroeste 0.4 -- -- 91
2019-06-05 12:00:00 12.1 15 Noroeste 36 Noroeste 0 -- -- 89
2019-06-05 11:00:00 12.8 20 Noroeste 33 Noroeste 0.2 -- -- 92
2019-06-05 10:00:00 10.7 24 Noroeste 34 Noroeste 0 -- -- 90
2019-06-05 09:00:00 11 16 Noroeste 31 Noroeste 0 -- -- 91
2019-06-05 08:00:00 9.5 13 Noroeste 29 Noroeste 0 -- -- 96
2019-06-05 07:00:00 9.3 13 Noroeste 32 Oeste 0 -- -- 95
2019-06-05 06:00:00 9.2 11 Noroeste 17 Norte 0 -- -- 96
2019-06-05 05:00:00 9.1 13 Noroeste 17 Norte 0.2 -- -- 96
2019-06-05 04:00:00 9.4 11 Noroeste 21 Norte 0 -- -- 98
2019-06-05 03:00:00 9.7 10 Norte 22 Noroeste 0 -- -- 99
2019-06-05 02:00:00 9.6 7 Oeste 16 Noroeste 0 -- -- 100
2019-06-05 01:00:00 9.5 3 Sur 6 Sudoeste 0 -- -- 99
2019-06-05 00:00:00 9.7 5 Sudeste 12 Oeste 0 -- -- 98
2019-06-04 23:00:00 9.9 3 Nordeste 22 Oeste 0 -- -- 98
2019-06-04 22:00:00 10 4 Nordeste 5 Nordeste 0 -- -- 99
2019-06-04 21:00:00 10 4 Norte 22 Oeste 2.2 -- -- 99
2019-06-04 20:00:00 10.3 8 Oeste 22 Oeste 0.6 -- -- 98
2019-06-04 19:00:00 10.7 11 Oeste 21 Oeste 1.4 -- -- 99
2019-06-04 18:00:00 11.3 11 Noroeste 38 Noroeste 1.6 -- -- 98
2019-06-04 17:00:00 11.5 21 Noroeste 38 Norte 0 -- -- 91
2019-06-04 16:00:00 12.3 15 Noroeste 29 Norte 0 -- -- 93
2019-06-04 15:00:00 12.7 10 Noroeste 36 Noroeste 0 -- -- 93
2019-06-04 14:00:00 13.4 23 Oeste 50 Noroeste 0 -- -- 89
2019-06-04 13:00:00 18.9 5 Sur 19 Noroeste 0 -- -- 79
2019-06-04 12:00:00 19.4 12 Noroeste 19 Noroeste 0 -- -- 74
2019-06-04 11:00:00 19.6 10 Noroeste 15 Oeste 0 -- -- 77
2019-06-04 10:00:00 16.4 5 Oeste 13 Noroeste 0 -- -- 91
2019-06-04 09:00:00 15.4 5 Oeste 9 Oeste 0 -- -- 96
2019-06-04 08:00:00 14.5 2 Nordeste 9 Noroeste 0 -- -- 98
2019-06-04 07:00:00 14.4 5 Noroeste 10 Noroeste 0 -- -- 99
2019-06-04 06:00:00 14.3 6 Oeste 9 Noroeste 0 -- -- 100
2019-06-04 05:00:00 14.3 6 Noroeste 15 Noroeste 0 -- -- 100
2019-06-04 04:00:00 14.4 10 Noroeste 20 Noroeste 0 -- -- 100
2019-06-04 03:00:00 14.4 10 Norte 19 Noroeste 0 -- -- 100
2019-06-04 02:00:00 14.5 8 Noroeste 13 Noroeste 0 -- -- 100
2019-06-04 01:00:00 14.4 5 Noroeste 12 Oeste 0 -- -- 99
2019-06-04 00:00:00 14.8 6 Sur 12 Sudeste 0 -- -- 95
2019-06-03 23:00:00 15.7 8 Sudeste 15 Sudeste 0 -- -- 93
2019-06-03 22:00:00 16.3 10 Sudeste 13 Sudeste 0 -- -- 92
2019-06-03 21:00:00 16.6 5 Sudoeste 14 Oeste 0 -- -- 93
2019-06-03 20:00:00 16.7 13 Oeste 22 Oeste 0 -- -- 92
2019-06-03 19:00:00 19.1 17 Oeste 26 Oeste 0 -- -- 81
2019-06-03 18:00:00 21.9 14 Oeste 25 Oeste 0 -- -- 73
2019-06-03 17:00:00 22.6 17 Oeste 23 Oeste 0 -- -- 66
2019-06-03 16:00:00 23.3 14 Oeste 22 Oeste 0 -- -- 64
2019-06-03 15:00:00 23.3 13 Oeste 19 Oeste 0 -- -- 64
2019-06-03 14:00:00 23.9 12 Noroeste 17 Noroeste 0 -- -- 61
2019-06-03 13:00:00 24 6 Sudeste 15 Este 0 -- -- 66
2019-06-03 12:00:00 22.4 4 Nordeste 12 Sudeste 0.4 -- -- 70
2019-06-03 11:00:00 20.3 3 Este 9 Este 0 -- -- 72
2019-06-03 10:00:00 17.7 4 Nordeste 11 Nordeste 0 -- -- 83
2019-06-03 09:00:00 15.1 2 Este 8 Sudeste 0 -- -- 90
2019-06-03 08:00:00 13.5 8 Sudeste 12 Oeste 0 -- -- 92
2019-06-03 07:00:00 13 7 Oeste 14 Sudeste 0 -- -- 92
2019-06-03 06:00:00 13.4 7 Sudeste 17 Oeste 0 -- -- 89
2019-06-03 05:00:00 14.1 14 Oeste 27 Oeste 0 -- -- 89
2019-06-03 04:00:00 13.3 13 Sudeste 20 Sudeste 0 -- -- 91
2019-06-03 03:00:00 13.4 6 Sur 20 Sudeste 0 -- -- 89
2019-06-03 02:00:00 14.2 5 Noroeste 8 Noroeste 0 -- -- 81
2019-06-03 01:00:00 14.5 4 Nordeste 7 Oeste 0 -- -- 80
2019-06-03 00:00:00 14.9 3 Este 5 Sudeste 0 -- -- 78
2019-06-02 23:00:00 15.3 4 Oeste 7 Este 0 -- -- 75
2019-06-02 22:00:00 15.7 3 Sur 15 Oeste 0 -- -- 67
2019-06-02 21:00:00 16.3 12 Oeste 17 Oeste 0 -- -- 69
2019-06-02 20:00:00 17.1 12 Oeste 23 Oeste 0 -- -- 73
2019-06-02 19:00:00 18.4 17 Oeste 22 Oeste 0 -- -- 77
2019-06-02 18:00:00 21.8 8 Oeste 14 Oeste 0 -- -- 68
2019-06-02 17:00:00 25.4 8 Sudeste 22 Este 0 -- -- 55
2019-06-02 16:00:00 27.4 4 Sudoeste 13 Norte 0 -- -- 55
2019-06-02 15:00:00 28 4 Oeste 14 Oeste 0 -- -- 42
2019-06-02 14:00:00 28.2 3 Sur 9 Sudeste 0 -- -- 48
2019-06-02 13:00:00 26.4 3 Noroeste 8 Noroeste 0 -- -- 40
2019-06-02 12:00:00 24.8 3 Sur 8 Nordeste 0 -- -- 51
2019-06-02 11:00:00 22 3 Nordeste 9 Sudeste 0 -- -- 73
2019-06-02 10:00:00 19.1 3 Sudeste 8 Sudoeste 0 -- -- 76
2019-06-02 09:00:00 17.5 5 Sudoeste 9 Sudoeste 0 -- -- 72
2019-06-02 08:00:00 16.1 2 Sur 7 Este 0 -- -- 72
2019-06-02 07:00:00 16 2 Sur 9 Este 0 -- -- 71
2019-06-02 06:00:00 16.6 2 Sudeste 8 Este 0 -- -- 69
2019-06-02 05:00:00 17.6 0 Calma 6 Sudoeste 0 -- -- 66
2019-06-02 04:00:00 17.5 2 Sudoeste 8 Nordeste 0 -- -- 68
2019-06-02 03:00:00 18.5 4 Nordeste 6 Nordeste 0 -- -- 65
2019-06-02 02:00:00 19.5 2 Sudoeste 4 Norte 0 -- -- 61
2019-06-02 01:00:00 20.2 2 Oeste 8 Noroeste 0 -- -- 58
2019-06-02 00:00:00 20 9 Noroeste 15 Oeste 0 -- -- 57
2019-06-01 23:00:00 21.1 2 Oeste 8 Sudeste 0 -- -- 56
2019-06-01 22:00:00 22.9 2 Sur 17 Oeste 0 -- -- 51
2019-06-01 21:00:00 24.9 15 Oeste 19 Oeste 0 -- -- 44
2019-06-01 20:00:00 26 14 Oeste 22 Oeste 0 -- -- 46
2019-06-01 19:00:00 27.4 15 Oeste 22 Oeste 0 -- -- 43
2019-06-01 18:00:00 28.6 14 Oeste 21 Oeste 0 -- -- 43
2019-06-01 17:00:00 28.7 14 Oeste 19 Oeste 0 -- -- 43
2019-06-01 16:00:00 29.1 13 Oeste 19 Sudoeste 0 -- -- 41
2019-06-01 15:00:00 29.7 11 Oeste 20 Oeste 0 -- -- 43
2019-06-01 14:00:00 31.9 5 Noroeste 13 Noroeste 0 -- -- 43
2019-06-01 13:00:00 30.2 4 Sudoeste 8 Sudoeste 0 -- -- 27
2019-06-01 12:00:00 28.2 3 Oeste 6 Oeste 0 -- -- 43
2019-06-01 11:00:00 25.2 2 Sudoeste 5 Sudoeste 0 -- -- 49
2019-06-01 10:00:00 21.5 2 Sudoeste 4 Sudoeste 0 -- -- 61
2019-06-01 09:00:00 18.9 0 Calma 5 Sur 0 -- -- 56
2019-06-01 08:00:00 18.3 0 Calma 4 Nordeste 0 -- -- 52
2019-06-01 07:00:00 17.7 3 Nordeste 7 Nordeste 0 -- -- 52
2019-06-01 06:00:00 17.5 4 Nordeste 7 Nordeste 0 -- -- 54
2019-06-01 05:00:00 17.7 2 Oeste 6 Nordeste 0 -- -- 52
2019-06-01 04:00:00 18.1 3 Nordeste 6 Nordeste 0 -- -- 52
2019-06-01 03:00:00 18.4 2 Este 6 Este 0 -- -- 51
2019-06-01 02:00:00 18.9 4 Nordeste 6 Nordeste 0 -- -- 50
2019-06-01 01:00:00 19.1 2 Sudeste 8 Nordeste 0 -- -- 50
2019-06-01 00:00:00 19.5 3 Sur 9 Este 0 -- -- 51
2019-05-31 23:00:00 20.5 7 Este 9 Este 0 -- -- 50
2019-05-31 22:00:00 23.5 7 Sudeste 15 Sudeste 0 -- -- 40
2019-05-31 21:00:00 26.4 11 Sudeste 24 Este 0 -- -- 35
2019-05-31 20:00:00 28.2 11 Sudeste 24 Este 0 -- -- 37
2019-05-31 19:00:00 29.1 11 Sudeste 28 Este 0 -- -- 36
2019-05-31 18:00:00 30.1 15 Este 27 Este 0 -- -- 43
2019-05-31 17:00:00 30.9 13 Sudeste 25 Este 0 -- -- 38
2019-05-31 16:00:00 31.2 10 Este 22 Este 0 -- -- 43
2019-05-31 15:00:00 31 8 Sudeste 16 Este 0 -- -- 38
2019-05-31 14:00:00 29.9 3 Sur 10 Sudeste 0 -- -- 36
2019-05-31 13:00:00 28.6 6 Sudeste 13 Sudeste 0 -- -- 43
2019-05-31 12:00:00 26.4 5 Sudeste 13 Sudeste 0 -- -- 53
2019-05-31 11:00:00 23.2 3 Este 8 Sur 0 -- -- 64
2019-05-31 10:00:00 19.1 2 Este 6 Este 0 -- -- 69
2019-05-31 09:00:00 16.4 4 Este 10 Sudeste 0 -- -- 73
2019-05-31 08:00:00 14.7 7 Sudeste 20 Sudeste 0 -- -- 74
2019-05-31 07:00:00 13.9 9 Sudeste 15 Sudeste 0 -- -- 73
2019-05-31 06:00:00 14 8 Este 15 Sudeste 0 -- -- 79
2019-05-31 05:00:00 14.8 5 Este 7 Este 0 -- -- 75
2019-05-31 04:00:00 15.1 5 Nordeste 19 Sur 0 -- -- 76
2019-05-31 03:00:00 15.7 10 Sudeste 21 Sudeste 0 -- -- 74
2019-05-31 02:00:00 15.7 9 Sudeste 17 Sudeste 0 -- -- 77
2019-05-31 01:00:00 15.9 12 Sudeste 17 Sudeste 0 -- -- 79
2019-05-31 00:00:00 16.7 12 Sudeste 17 Sudeste 0 -- -- 76
2019-05-30 23:00:00 17.8 13 Sudeste 19 Sudeste 0 -- -- 71
2019-05-30 22:00:00 19.6 14 Sudeste 24 Sudeste 0 -- -- 64
2019-05-30 21:00:00 22.4 15 Sudeste 35 Este 0 -- -- 53
2019-05-30 20:00:00 24.1 18 Este 35 Este 0 -- -- 50
2019-05-30 19:00:00 25.5 14 Este 28 Este 0 -- -- 49
2019-05-30 18:00:00 26.6 15 Este 27 Este 0 -- -- 49
2019-05-30 17:00:00 27.7 13 Este 24 Este 0 -- -- 51
2019-05-30 16:00:00 28.3 7 Este 15 Este 0 -- -- 48
2019-05-30 15:00:00 27.5 6 Sudeste 16 Este 0 -- -- 51
2019-05-30 14:00:00 26.4 6 Sur 20 Sudeste 0 -- -- 58
2019-05-30 13:00:00 25.2 4 Este 18 Este 0 -- -- 51
2019-05-30 12:00:00 23.1 10 Sudeste 25 Este 0 -- -- 58
2019-05-30 11:00:00 20.6 5 Este 11 Sudeste 0 -- -- 65
2019-05-30 10:00:00 16.6 6 Sudeste 15 Sudeste 0 -- -- 77
2019-05-30 09:00:00 12.9 2 Nordeste 10 Sudeste 0 -- -- 89
2019-05-30 08:00:00 11.6 6 Sudeste 13 Sudeste 0 -- -- 91
2019-05-30 07:00:00 10.7 4 Sur 13 Este 0 -- -- 92
2019-05-30 06:00:00 10.6 6 Sudeste 13 Sudeste 0 -- -- 92
2019-05-30 05:00:00 10.7 6 Este 14 Sudeste 0 -- -- 94
2019-05-30 04:00:00 11.3 13 Sudeste 18 Sudeste 0 -- -- 94
2019-05-30 03:00:00 10.9 7 Este 11 Sudeste 0 -- -- 95
2019-05-30 02:00:00 11.1 3 Este 5 Nordeste 0 -- -- 94
2019-05-30 01:00:00 11.2 4 Sudeste 12 Sudeste 0 -- -- 93
2019-05-30 00:00:00 11.7 10 Sudeste 14 Sudeste 0 -- -- 90
2019-05-29 23:00:00 12.7 10 Sudeste 19 Sudeste 0 -- -- 87
2019-05-29 22:00:00 14.6 13 Sudeste 19 Sudeste 0 -- -- 79
2019-05-29 21:00:00 17.3 14 Sudeste 19 Sudeste 0 -- -- 71
2019-05-29 20:00:00 19.3 13 Sudeste 18 Sudeste 0 -- -- 66
2019-05-29 19:00:00 21.5 6 Sudeste 16 Este 0 -- -- 62
2019-05-29 18:00:00 22.3 6 Sudoeste 21 Sudoeste 0 -- -- 66
2019-05-29 17:00:00 21.6 10 Oeste 20 Oeste 0 -- -- 68
2019-05-29 16:00:00 20.8 13 Noroeste 18 Noroeste 0 -- -- 65
2019-05-29 15:00:00 20.1 12 Noroeste 21 Oeste 0 -- -- 69
2019-05-29 14:00:00 19.2 12 Oeste 19 Oeste 0 -- -- 66
2019-05-29 13:00:00 18.6 10 Noroeste 19 Noroeste 0 -- -- 68
2019-05-29 12:00:00 18.1 4 Sudoeste 11 Nordeste 0 -- -- 65
2019-05-29 11:00:00 16.3 2 Nordeste 11 Nordeste 0 -- -- 69
2019-05-29 10:00:00 12.9 3 Noroeste 9 Oeste 0 -- -- 84
2019-05-29 09:00:00 9.7 4 Sudoeste 8 Sudoeste 0 -- -- 92
2019-05-29 08:00:00 9.2 2 Este 4 Sudeste 0 -- -- 96
2019-05-29 07:00:00 8.7 0 Calma 5 Sudoeste 0 -- -- 93
2019-05-29 06:00:00 9.1 3 Oeste 9 Sudoeste 0 -- -- 92
2019-05-29 05:00:00 9.3 5 Oeste 12 Sudoeste 0 -- -- 91
2019-05-29 04:00:00 9.4 2 Noroeste 9 Oeste 0 -- -- 91
2019-05-29 03:00:00 9.5 5 Oeste 7 Oeste 0 -- -- 94
2019-05-29 02:00:00 9.6 0 Calma 6 Noroeste 0 -- -- 93
2019-05-29 01:00:00 9.5 4 Noroeste 10 Noroeste 0 -- -- 94
2019-05-29 00:00:00 9.7 5 Oeste 14 Noroeste 0 -- -- 91
2019-05-28 23:00:00 10.2 12 Noroeste 23 Noroeste 0 -- -- 89
2019-05-28 22:00:00 10.4 16 Noroeste 22 Norte 0 -- -- 89
2019-05-28 21:00:00 11.4 14 Noroeste 26 Noroeste 0 -- -- 84
2019-05-28 20:00:00 13.4 14 Noroeste 28 Norte 0 -- -- 81
2019-05-28 19:00:00 15.1 20 Norte 35 Noroeste 0 -- -- 75
2019-05-28 18:00:00 14.5 14 Noroeste 35 Noroeste 0 -- -- 75
2019-05-28 17:00:00 14.6 20 Norte 31 Norte 0 -- -- 74
2019-05-28 16:00:00 14.7 17 Norte 42 Norte 0 -- -- 73
2019-05-28 15:00:00 14.3 16 Norte 35 Noroeste 0 -- -- 81
2019-05-28 14:00:00 14.1 22 Noroeste 37 Norte 0 -- -- 75
2019-05-28 13:00:00 14.5 20 Noroeste 36 Noroeste 0 -- -- 80
2019-05-28 12:00:00 12.4 19 Noroeste 28 Noroeste 0 -- -- 81
2019-05-28 11:00:00 11.7 6 Norte 18 Oeste 0 -- -- 88
2019-05-28 10:00:00 10.5 10 Oeste 18 Oeste 0 -- -- 92
2019-05-28 09:00:00 9.4 8 Oeste 19 Noroeste 0 -- -- 99
2019-05-28 08:00:00 9.1 4 Norte 15 Noroeste 0 -- -- 100
2019-05-28 07:00:00 8.7 4 Norte 12 Norte 0 -- -- 100
2019-05-28 06:00:00 8.4 9 Oeste 19 Noroeste 0 -- -- 100
2019-05-28 05:00:00 8.8 12 Noroeste 18 Noroeste 0 -- -- 100
2019-05-28 04:00:00 9.3 11 Noroeste 19 Noroeste 0 -- -- 100
2019-05-28 03:00:00 9.7 13 Noroeste 19 Noroeste 0 -- -- 100
2019-05-28 02:00:00 9.9 9 Oeste 24 Oeste 0 -- -- 100
2019-05-28 01:00:00 10.2 14 Noroeste 20 Oeste 0 -- -- 100
2019-05-28 00:00:00 10.5 8 Noroeste 22 Noroeste 0 -- -- 100
2019-05-27 23:00:00 10.7 12 Noroeste 17 Noroeste 0 -- -- 100
2019-05-27 22:00:00 10.8 10 Noroeste 17 Noroeste 0 -- -- 100
2019-05-27 21:00:00 10.9 13 Noroeste 19 Noroeste 0.6 -- -- 100
2019-05-27 20:00:00 11.1 18 Noroeste 33 Noroeste 0.2 -- -- 100
2019-05-27 19:00:00 11.7 22 Noroeste 31 Norte 0.2 -- -- 100
2019-05-27 18:00:00 12.3 17 Noroeste 25 Noroeste 0.4 -- -- 100
2019-05-27 17:00:00 12.6 16 Noroeste 30 Noroeste 0.6 -- -- 100
2019-05-27 16:00:00 12.9 16 Noroeste 35 Noroeste 1 -- -- 100
2019-05-27 15:00:00 13.2 24 Noroeste 34 Norte 0.4 -- -- 99
2019-05-27 14:00:00 14.2 15 Oeste 28 Oeste 0 -- -- 99
2019-05-27 13:00:00 13.7 21 Oeste 28 Oeste 0.2 -- -- 100
2019-05-27 12:00:00 14.2 11 Noroeste 15 Noroeste 0.4 -- -- 100
2019-05-27 11:00:00 13 4 Oeste 10 Noroeste 0.8 -- -- 100
2019-05-27 10:00:00 12.2 3 Oeste 5 Noroeste 0.6 -- -- 100
2019-05-27 09:00:00 11.3 4 Sudoeste 13 Noroeste 0.6 -- -- 100
2019-05-27 08:00:00 10.8 8 Oeste 12 Oeste 0.2 -- -- 100
2019-05-27 07:00:00 10.7 5 Noroeste 8 Noroeste 0 -- -- 100
2019-05-27 06:00:00 10.7 3 Noroeste 9 Oeste 0 -- -- 100
2019-05-27 05:00:00 10.8 6 Noroeste 11 Noroeste 0 -- -- 100
2019-05-27 04:00:00 10.9 6 Oeste 15 Oeste 0 -- -- 100
2019-05-27 03:00:00 10.6 10 Oeste 13 Oeste 0 -- -- 100
2019-05-27 02:00:00 10.6 3 Oeste 12 Sudoeste 0 -- -- 100
2019-05-27 01:00:00 10.9 7 Noroeste 11 Noroeste 0 -- -- 100
2019-05-27 00:00:00 10.9 8 Oeste 15 Oeste 0 -- -- 100
2019-05-26 23:00:00 11.4 8 Noroeste 14 Oeste 0 -- -- 99
2019-05-26 22:00:00 11.6 3 Noroeste 14 Oeste 0 -- -- 98
2019-05-26 21:00:00 11.7 11 Oeste 21 Oeste 0 -- -- 97
2019-05-26 20:00:00 12 17 Oeste 27 Oeste 0 -- -- 95
2019-05-26 19:00:00 12.9 20 Sudoeste 28 Oeste 0 -- -- 91
2019-05-26 18:00:00 14.6 16 Oeste 22 Oeste 0 -- -- 86
2019-05-26 17:00:00 14.3 15 Oeste 27 Oeste 0 -- -- 86
2019-05-26 16:00:00 14.7 18 Oeste 27 Oeste 0 -- -- 84
2019-05-26 15:00:00 17.3 12 Noroeste 23 Oeste 0 -- -- 75
2019-05-26 14:00:00 17.8 8 Noroeste 22 Noroeste 0 -- -- 72
2019-05-26 13:00:00 16.6 8 Norte 21 Noroeste 0 -- -- 75
2019-05-26 12:00:00 16 14 Noroeste 21 Noroeste 0 -- -- 75
2019-05-26 11:00:00 14.6 7 Noroeste 18 Norte 0 -- -- 81
2019-05-26 10:00:00 13.3 5 Noroeste 12 Noroeste 0 -- -- 84
2019-05-26 09:00:00 11 4 Noroeste 6 Norte 0 -- -- 97
2019-05-26 08:00:00 9.7 3 Este 13 Oeste 0 -- -- 100
2019-05-26 07:00:00 8.8 2 Sudoeste 5 Oeste 0 -- -- 98
2019-05-26 06:00:00 9.5 0 Calma 10 Oeste 0 -- -- 96
2019-05-26 05:00:00 9.4 8 Oeste 10 Oeste 0 -- -- 96
2019-05-26 04:00:00 9.8 4 Oeste 4 Oeste 0 -- -- 95
2019-05-26 03:00:00 10.1 0 Calma 8 Sudoeste 0 -- -- 94
2019-05-26 02:00:00 9.9 5 Oeste 12 Oeste 0 -- -- 95
2019-05-26 01:00:00 9.9 10 Oeste 14 Oeste 0 -- -- 93
2019-05-26 00:00:00 10.2 7 Oeste 13 Oeste 0 -- -- 90